Airport View

Enter AWOS ICAO identifier for current METAR.

ex. KFNL

KLHZ 210020Z AUTO 00000KT 10SM CLR 17/13 A3030 RMK AO2

21 Sep 2019 00:46

Frequency: 118.325

Phone: 919-497-0810

Other Area AWOS: KHNZ - KRWI - KRDU - KJNX

TAF KRWI 202320Z 2100/2124 20004KT P6SM SCT250 FM210700 00000KT 2SM BR FEW250 TEMPO 2107/2111 00000KT 1/2SM FG VV008